createdAt,value
2023-01-30T00:02:31.860Z,-1.66
2023-01-30T00:06:34.071Z,-1.60
2023-01-30T00:10:36.424Z,-1.61
2023-01-30T00:14:38.406Z,-1.54
2023-01-30T00:18:41.560Z,-1.58
2023-01-30T00:22:52.447Z,-1.76
2023-01-30T00:27:01.318Z,-1.86
2023-01-30T00:31:04.543Z,-1.79
2023-01-30T00:35:08.274Z,-1.82
2023-01-30T00:39:10.359Z,-1.90
2023-01-30T00:43:31.546Z,-1.93
2023-01-30T00:47:33.535Z,-1.91
2023-01-30T00:51:35.511Z,-1.98
2023-01-30T00:55:38.056Z,-1.90
2023-01-30T00:59:40.321Z,-1.87
2023-01-30T01:03:42.632Z,-2.04
2023-01-30T01:07:44.610Z,-1.86
2023-01-30T01:11:46.807Z,-1.86
2023-01-30T01:15:49.838Z,-1.90
2023-01-30T01:19:51.872Z,-1.95
2023-01-30T01:23:58.484Z,-2.06
2023-01-30T01:28:00.449Z,-1.96
2023-01-30T01:32:02.600Z,-2.06
2023-01-30T01:36:05.163Z,-2.07
2023-01-30T01:40:26.201Z,-2.22
2023-01-30T01:44:28.288Z,-2.18
2023-01-30T01:48:36.080Z,-2.11
2023-01-30T01:52:40.439Z,-2.09
2023-01-30T01:56:43.992Z,-2.05
2023-01-30T02:00:46.853Z,-2.11
2023-01-30T02:05:02.391Z,-2.11
2023-01-30T02:09:07.900Z,-2.13
2023-01-30T02:13:10.027Z,-2.07
2023-01-30T02:17:12.020Z,-2.04
2023-01-30T02:21:14.243Z,-1.99
2023-01-30T02:25:34.889Z,-2.12
2023-01-30T02:29:55.572Z,-2.20
2023-01-30T02:34:06.567Z,-2.25
2023-01-30T02:38:27.456Z,-2.25
2023-01-30T02:42:41.859Z,-2.29
2023-01-30T02:46:53.216Z,-2.28
2023-01-30T02:51:03.570Z,-2.28
2023-01-30T02:55:25.635Z,-2.48
2023-01-30T02:59:42.008Z,-2.49
2023-01-30T03:03:47.720Z,-2.39
2023-01-30T03:08:11.535Z,-2.37
2023-01-30T03:12:22.455Z,-2.33
2023-01-30T03:16:27.837Z,-2.37
2023-01-30T03:20:30.795Z,-2.43
2023-01-30T03:24:32.823Z,-2.39
2023-01-30T03:28:35.215Z,-2.38
2023-01-30T03:32:37.241Z,-2.36
2023-01-30T03:36:39.706Z,-2.35
2023-01-30T03:40:41.938Z,-2.41
2023-01-30T03:44:44.725Z,-2.41
2023-01-30T03:48:46.666Z,-2.42
2023-01-30T03:52:49.068Z,-2.42
2023-01-30T03:56:54.579Z,-2.42
2023-01-30T04:00:57.575Z,-2.42
2023-01-30T04:05:00.889Z,-2.43
2023-01-30T04:09:03.884Z,-2.43
2023-01-30T04:13:14.818Z,-2.85
2023-01-30T04:17:17.212Z,-3.31
2023-01-30T04:21:37.967Z,-3.47
2023-01-30T04:25:40.008Z,-3.45
2023-01-30T04:29:44.563Z,-3.57
2023-01-30T04:33:47.088Z,-3.40
2023-01-30T04:37:49.050Z,-3.19
2023-01-30T04:41:54.693Z,-3.15
2023-01-30T04:45:57.284Z,-3.04
2023-01-30T04:49:59.730Z,-2.98
2023-01-30T04:54:02.119Z,-2.99
2023-01-30T04:58:05.670Z,-2.94
2023-01-30T05:02:07.939Z,-2.89
2023-01-30T05:06:09.930Z,-2.92
2023-01-30T05:10:11.996Z,-2.98
2023-01-30T05:14:14.088Z,-2.98
2023-01-30T05:18:16.109Z,-3.01
2023-01-30T05:22:18.120Z,-2.98
2023-01-30T05:26:20.173Z,-2.95
2023-01-30T05:30:22.270Z,-3.03
2023-01-30T05:34:24.300Z,-3.07
2023-01-30T05:38:26.461Z,-3.05
2023-01-30T05:42:28.531Z,-3.08
2023-01-30T05:46:30.714Z,-3.11
2023-01-30T05:50:32.926Z,-3.18
2023-01-30T05:54:35.423Z,-3.15
2023-01-30T05:58:38.187Z,-3.13
2023-01-30T06:02:40.211Z,-3.20
2023-01-30T06:06:42.320Z,-3.41
2023-01-30T06:10:44.476Z,-3.44
2023-01-30T06:19:25.229Z,-3.27
2023-01-30T06:23:27.512Z,-3.27
2023-01-30T06:27:29.463Z,-3.27
2023-01-30T06:31:31.515Z,-3.42
2023-01-30T06:35:33.801Z,-3.38
2023-01-30T06:39:35.704Z,-3.34
2023-01-30T06:43:37.682Z,-3.31
2023-01-30T06:47:50.232Z,-3.32
2023-01-30T06:51:52.313Z,-3.36
2023-01-30T06:55:54.407Z,-3.60
2023-01-30T06:59:56.468Z,-3.72
2023-01-30T07:03:58.573Z,-3.63
2023-01-30T07:08:00.656Z,-3.75
2023-01-30T07:12:02.664Z,-3.71
2023-01-30T07:16:04.706Z,-3.64
2023-01-30T07:20:07.398Z,-3.52
2023-01-30T07:24:09.366Z,-3.27
2023-01-30T07:28:11.276Z,-3.01
2023-01-30T07:32:19.225Z,-2.83
2023-01-30T07:36:21.652Z,-2.67
2023-01-30T07:40:24.156Z,-2.48
2023-01-30T07:44:26.060Z,-2.38
2023-01-30T07:48:28.009Z,-2.16
2023-01-30T07:52:30.247Z,-2.01
2023-01-30T07:56:32.310Z,-1.91
2023-01-30T08:00:35.397Z,-1.78
2023-01-30T08:04:37.371Z,-1.66
2023-01-30T08:08:39.890Z,-1.53
2023-01-30T08:12:42.083Z,-1.40
2023-01-30T08:16:44.187Z,-1.22
2023-01-30T08:20:46.329Z,-1.11
2023-01-30T08:24:48.271Z,-0.92
2023-01-30T08:28:50.461Z,-0.75
2023-01-30T08:32:52.579Z,-0.61
2023-01-30T08:36:54.579Z,-0.43
2023-01-30T08:40:58.049Z,-0.31
2023-01-30T08:45:00.055Z,-0.15
2023-01-30T08:49:02.034Z,-0.02
2023-01-30T08:53:09.264Z,0.13
2023-01-30T08:57:11.665Z,0.29
2023-01-30T09:01:13.812Z,0.48
2023-01-30T09:05:15.968Z,0.65
2023-01-30T09:09:18.187Z,0.79
2023-01-30T09:13:20.093Z,1.00
2023-01-30T09:17:22.254Z,1.15
2023-01-30T09:21:24.608Z,1.33
2023-01-30T09:25:26.698Z,1.42
2023-01-30T09:29:29.023Z,1.55
2023-01-30T09:33:31.410Z,1.63
2023-01-30T09:37:33.413Z,1.78
2023-01-30T09:41:35.619Z,1.97
2023-01-30T09:45:46.916Z,2.09
2023-01-30T09:50:06.309Z,2.29
2023-01-30T09:54:24.452Z,2.40
2023-01-30T09:58:32.642Z,2.66
2023-01-30T10:02:44.053Z,2.80
2023-01-30T10:06:51.692Z,3.02
2023-01-30T10:11:09.673Z,3.18
2023-01-30T10:15:15.028Z,3.48
2023-01-30T10:19:33.556Z,3.73
2023-01-30T10:24:13.439Z,3.86
2023-01-30T10:28:22.576Z,4.08
2023-01-30T10:32:31.874Z,4.20
2023-01-30T10:36:34.220Z,4.44
2023-01-30T10:40:40.091Z,4.62
2023-01-30T10:44:44.868Z,4.76
2023-01-30T10:49:06.420Z,4.97
2023-01-30T10:53:08.388Z,5.22
2023-01-30T10:57:33.918Z,5.35
2023-01-30T11:01:48.383Z,5.49
2023-01-30T11:05:51.637Z,5.65
2023-01-30T11:09:53.620Z,5.85
2023-01-30T11:14:05.036Z,5.95
2023-01-30T11:19:06.635Z,6.14
2023-01-30T11:22:31.322Z,6.23
2023-01-30T11:26:46.843Z,6.43
2023-01-30T11:31:01.561Z,6.71
2023-01-30T11:35:06.813Z,7.06
2023-01-30T11:39:18.830Z,7.12
2023-01-30T11:43:24.832Z,7.16
2023-01-30T11:47:28.274Z,7.11
2023-01-30T11:51:34.574Z,7.21
2023-01-30T11:55:37.731Z,7.32
2023-01-30T11:59:54.580Z,7.44
2023-01-30T12:03:57.511Z,7.67
2023-01-30T12:08:12.497Z,7.74
2023-01-30T12:12:33.309Z,7.77
2023-01-30T12:16:46.878Z,7.77
2023-01-30T12:20:59.069Z,7.51
2023-01-30T12:25:03.649Z,7.49
2023-01-30T12:29:21.121Z,7.48
2023-01-30T12:33:26.824Z,7.76
2023-01-30T12:37:41.084Z,8.08
2023-01-30T12:42:01.895Z,8.48
2023-01-30T12:46:23.171Z,8.58
2023-01-30T12:50:28.275Z,8.88
2023-01-30T12:54:30.729Z,9.02
2023-01-30T12:58:45.998Z,9.22
2023-01-30T13:02:51.264Z,9.68
2023-01-30T13:06:56.206Z,9.11
2023-01-30T13:11:06.092Z,8.98
2023-01-30T13:15:08.610Z,8.93
2023-01-30T13:19:21.008Z,8.85
2023-01-30T13:23:50.127Z,8.49
2023-01-30T13:28:14.417Z,8.27
2023-01-30T13:32:25.575Z,8.26
2023-01-30T13:36:28.967Z,8.46
2023-01-30T13:40:36.132Z,8.56
2023-01-30T13:44:42.401Z,8.73
2023-01-30T13:48:50.595Z,8.79
2023-01-30T13:53:13.749Z,8.70
2023-01-30T13:57:22.035Z,8.80
2023-01-30T14:01:27.914Z,8.66
2023-01-30T14:05:48.923Z,8.83
2023-01-30T14:09:51.029Z,9.02
2023-01-30T14:13:53.915Z,9.26
2023-01-30T14:18:06.052Z,9.41
2023-01-30T14:22:19.515Z,9.46
2023-01-30T14:26:40.227Z,9.57
2023-01-30T14:30:50.137Z,9.25
2023-01-30T14:35:04.273Z,9.29
2023-01-30T14:39:25.034Z,9.52
2023-01-30T14:43:33.231Z,9.52
2023-01-30T14:47:43.410Z,9.53
2023-01-30T14:51:49.756Z,9.51
2023-01-30T14:55:59.773Z,9.44
2023-01-30T15:00:17.150Z,9.36
2023-01-30T15:04:20.881Z,9.28
2023-01-30T15:08:24.729Z,9.21
2023-01-30T15:12:36.292Z,9.25
2023-01-30T15:16:41.354Z,9.19
2023-01-30T15:21:01.938Z,9.09
2023-01-30T15:25:25.121Z,9.05
2023-01-30T15:29:30.448Z,8.97
2023-01-30T15:33:32.817Z,8.85
2023-01-30T15:37:37.275Z,8.81
2023-01-30T15:41:42.829Z,8.76
2023-01-30T15:45:57.791Z,8.71
2023-01-30T15:50:01.926Z,8.58
2023-01-30T15:54:09.198Z,8.54
2023-01-30T15:58:13.889Z,8.50
2023-01-30T16:02:23.709Z,8.49
2023-01-30T16:06:35.961Z,8.34
2023-01-30T16:10:44.051Z,8.19
2023-01-30T16:14:46.073Z,8.04
2023-01-30T16:18:51.522Z,7.95
2023-01-30T16:22:53.713Z,7.85
2023-01-30T16:27:00.741Z,7.73
2023-01-30T16:31:05.030Z,7.58
2023-01-30T16:35:27.491Z,7.50
2023-01-30T16:39:30.697Z,7.47
2023-01-30T16:43:33.617Z,7.37
2023-01-30T16:47:37.623Z,7.37
2023-01-30T16:51:40.009Z,7.34
2023-01-30T16:55:54.430Z,7.30
2023-01-30T16:59:56.511Z,7.24
2023-01-30T17:04:02.689Z,7.21
2023-01-30T17:08:04.879Z,7.19
2023-01-30T17:12:30.395Z,7.16
2023-01-30T17:16:34.493Z,7.10
2023-01-30T17:20:39.104Z,7.06
2023-01-30T17:24:41.597Z,7.01
2023-01-30T17:28:44.011Z,6.94
2023-01-30T17:32:46.363Z,6.93
2023-01-30T17:36:49.412Z,6.98
2023-01-30T17:40:51.582Z,7.06
2023-01-30T17:44:54.158Z,7.03
2023-01-30T17:48:56.579Z,7.00
2023-01-30T17:52:58.860Z,7.04
2023-01-30T17:57:02.447Z,7.04
2023-01-30T18:01:04.557Z,7.00
2023-01-30T18:05:08.873Z,6.90
2023-01-30T18:09:15.523Z,6.86
2023-01-30T18:13:17.595Z,6.78
2023-01-30T18:17:19.895Z,6.76
2023-01-30T18:21:22.440Z,6.82
2023-01-30T18:25:24.446Z,6.85
2023-01-30T18:29:37.235Z,6.92
2023-01-30T18:33:48.520Z,7.01
2023-01-30T18:37:50.695Z,7.09
2023-01-30T18:41:52.680Z,7.22
2023-01-30T18:46:01.597Z,7.25
2023-01-30T18:50:04.619Z,7.28
2023-01-30T18:54:06.794Z,7.31
2023-01-30T18:58:08.875Z,7.32
2023-01-30T19:02:13.234Z,7.36
2023-01-30T19:06:17.810Z,7.35
2023-01-30T19:10:20.550Z,7.20
2023-01-30T19:14:22.711Z,7.15
2023-01-30T19:18:26.332Z,7.14
2023-01-30T19:22:28.494Z,7.15
2023-01-30T19:26:30.863Z,7.07
2023-01-30T19:30:33.046Z,7.01
2023-01-30T19:34:37.013Z,6.95
2023-01-30T19:38:39.391Z,6.90
2023-01-30T19:42:44.453Z,6.86
2023-01-30T19:46:46.862Z,6.72
2023-01-30T19:50:51.192Z,6.69
2023-01-30T19:54:54.165Z,6.61
2023-01-30T19:58:58.723Z,6.61
2023-01-30T20:03:01.020Z,6.61
2023-01-30T20:07:03.286Z,6.61
2023-01-30T20:11:06.820Z,6.55
2023-01-30T20:15:10.252Z,6.48
2023-01-30T20:19:16.711Z,6.38
2023-01-30T20:23:18.823Z,6.37
2023-01-30T20:27:21.855Z,6.35
2023-01-30T20:31:26.141Z,6.31
2023-01-30T20:35:28.804Z,6.26
2023-01-30T20:39:30.888Z,6.31
2023-01-30T20:43:34.210Z,6.36
2023-01-30T20:47:36.369Z,6.57
2023-01-30T20:51:38.575Z,6.67
2023-01-30T20:55:41.037Z,6.76
2023-01-30T20:59:45.270Z,6.86
2023-01-30T21:03:50.984Z,6.95
2023-01-30T21:07:53.155Z,7.00
2023-01-30T21:11:56.774Z,7.00
2023-01-30T21:16:18.637Z,7.07
2023-01-30T21:20:20.780Z,7.05
2023-01-30T21:24:41.428Z,7.12
2023-01-30T21:29:02.025Z,7.13
2023-01-30T21:33:22.299Z,7.13
2023-01-30T21:38:01.418Z,7.08
2023-01-30T21:42:41.290Z,7.08
2023-01-30T21:47:01.604Z,7.09
2023-01-30T21:51:22.942Z,7.08
2023-01-30T21:55:50.257Z,6.90
2023-01-30T22:00:11.249Z,6.90
2023-01-30T22:04:34.379Z,6.79
2023-01-30T22:08:55.516Z,6.72
2023-01-30T22:13:16.007Z,6.72
2023-01-30T22:17:36.538Z,6.80
2023-01-30T22:21:57.155Z,6.78
2023-01-30T22:26:18.760Z,6.77
2023-01-30T22:30:39.939Z,6.79
2023-01-30T22:35:00.946Z,6.92
2023-01-30T22:39:21.480Z,6.80
2023-01-30T22:43:46.415Z,6.44
2023-01-30T22:48:07.246Z,6.43
2023-01-30T22:52:27.664Z,5.84
2023-01-30T22:56:48.985Z,5.21
2023-01-30T23:01:19.109Z,4.84
2023-01-30T23:05:39.595Z,4.21
2023-01-30T23:10:00.362Z,4.30
2023-01-30T23:14:20.779Z,4.19
2023-01-30T23:18:56.461Z,4.29
2023-01-30T23:23:17.139Z,4.25
2023-01-30T23:27:37.822Z,4.06
2023-01-30T23:31:59.013Z,4.05
2023-01-30T23:36:19.183Z,3.96
2023-01-30T23:40:39.958Z,3.70
2023-01-30T23:45:00.503Z,3.36
2023-01-30T23:49:21.110Z,3.20
2023-01-30T23:53:41.656Z,3.30
2023-01-30T23:58:02.406Z,3.08
